sensor_id;sensor_type;location;lat;lon;timestamp;temperature;humidity
10437;DHT22;5265;50.006;9.202;2022-10-17T00:00:41;12.80;1.00
10437;DHT22;5265;50.006;9.202;2022-10-17T00:03:08;12.80;1.00
10437;DHT22;5265;50.006;9.202;2022-10-17T00:05:38;12.90;1.00
10437;DHT22;5265;50.006;9.202;2022-10-17T00:08:05;12.80;25.70
10437;DHT22;5265;50.006;9.202;2022-10-17T00:10:34;12.80;7.00
10437;DHT22;5265;50.006;9.202;2022-10-17T00:13:01;12.80;71.60
10437;DHT22;5265;50.006;9.202;2022-10-17T00:15:28;12.80;99.90
10437;DHT22;5265;50.006;9.202;2022-10-17T00:17:55;12.80;99.90
10437;DHT22;5265;50.006;9.202;2022-10-17T00:20:22;12.80;99.90
10437;DHT22;5265;50.006;9.202;2022-10-17T00:22:50;12.80;99.90
10437;DHT22;5265;50.006;9.202;2022-10-17T00:25:17;12.80;99.90
10437;DHT22;5265;50.006;9.202;2022-10-17T00:27:45;12.70;99.90
10437;DHT22;5265;50.006;9.202;2022-10-17T00:30:14;12.70;85.40
10437;DHT22;5265;50.006;9.202;2022-10-17T00:32:41;12.70;99.90
10437;DHT22;5265;50.006;9.202;2022-10-17T00:35:08;12.60;1.00
10437;DHT22;5265;50.006;9.202;2022-10-17T00:37:36;12.60;1.00
10437;DHT22;5265;50.006;9.202;2022-10-17T00:40:03;12.50;1.00
10437;DHT22;5265;50.006;9.202;2022-10-17T00:42:30;12.60;1.00
10437;DHT22;5265;50.006;9.202;2022-10-17T00:45:00;12.50;1.00
10437;DHT22;5265;50.006;9.202;2022-10-17T00:47:28;12.50;1.00
10437;DHT22;5265;50.006;9.202;2022-10-17T00:49:56;12.50;1.00
10437;DHT22;5265;50.006;9.202;2022-10-17T00:52:27;12.50;1.00
10437;DHT22;5265;50.006;9.202;2022-10-17T00:54:55;12.50;1.00
10437;DHT22;5265;50.006;9.202;2022-10-17T00:57:24;12.50;1.00
10437;DHT22;5265;50.006;9.202;2022-10-17T00:59:52;12.40;1.00
10437;DHT22;5265;50.006;9.202;2022-10-17T01:02:22;12.40;1.00
10437;DHT22;5265;50.006;9.202;2022-10-17T01:04:50;12.40;1.00
10437;DHT22;5265;50.006;9.202;2022-10-17T01:07:19;12.40;1.00
10437;DHT22;5265;50.006;9.202;2022-10-17T01:09:47;12.40;1.00
10437;DHT22;5265;50.006;9.202;2022-10-17T01:12:16;12.40;1.00
10437;DHT22;5265;50.006;9.202;2022-10-17T01:14:45;12.40;1.00
10437;DHT22;5265;50.006;9.202;2022-10-17T01:17:15;12.40;1.00
10437;DHT22;5265;50.006;9.202;2022-10-17T01:19:58;12.40;1.00
10437;DHT22;5265;50.006;9.202;2022-10-17T01:22:35;12.40;1.00
10437;DHT22;5265;50.006;9.202;2022-10-17T01:25:11;12.40;1.00
10437;DHT22;5265;50.006;9.202;2022-10-17T01:27:47;12.30;1.00
10437;DHT22;5265;50.006;9.202;2022-10-17T01:30:25;12.40;1.00
10437;DHT22;5265;50.006;9.202;2022-10-17T01:32:57;12.40;1.00
10437;DHT22;5265;50.006;9.202;2022-10-17T01:35:30;12.30;99.90
10437;DHT22;5265;50.006;9.202;2022-10-17T01:38:00;12.30;1.00
10437;DHT22;5265;50.006;9.202;2022-10-17T01:40:31;12.20;1.00
10437;DHT22;5265;50.006;9.202;2022-10-17T01:43:01;12.20;1.00
10437;DHT22;5265;50.006;9.202;2022-10-17T01:45:31;12.10;1.00
10437;DHT22;5265;50.006;9.202;2022-10-17T01:48:02;12.10;1.00
10437;DHT22;5265;50.006;9.202;2022-10-17T01:50:31;12.10;1.00
10437;DHT22;5265;50.006;9.202;2022-10-17T01:53:01;12.10;1.00
10437;DHT22;5265;50.006;9.202;2022-10-17T01:55:30;12.00;1.00
10437;DHT22;5265;50.006;9.202;2022-10-17T01:58:00;12.00;1.00
10437;DHT22;5265;50.006;9.202;2022-10-17T02:00:27;12.00;88.20
10437;DHT22;5265;50.006;9.202;2022-10-17T02:02:56;12.00;99.90
10437;DHT22;5265;50.006;9.202;2022-10-17T02:05:26;12.00;99.90
10437;DHT22;5265;50.006;9.202;2022-10-17T02:07:54;12.00;99.90
10437;DHT22;5265;50.006;9.202;2022-10-17T02:10:24;12.00;99.90
10437;DHT22;5265;50.006;9.202;2022-10-17T02:12:55;12.00;99.90
10437;DHT22;5265;50.006;9.202;2022-10-17T02:15:32;12.00;1.00
10437;DHT22;5265;50.006;9.202;2022-10-17T02:18:06;11.90;1.00
10437;DHT22;5265;50.006;9.202;2022-10-17T02:20:39;11.90;1.00
10437;DHT22;5265;50.006;9.202;2022-10-17T02:23:08;11.90;99.90
10437;DHT22;5265;50.006;9.202;2022-10-17T02:25:37;11.80;99.90
10437;DHT22;5265;50.006;9.202;2022-10-17T02:28:09;11.90;1.00
10437;DHT22;5265;50.006;9.202;2022-10-17T02:30:41;11.90;1.00
10437;DHT22;5265;50.006;9.202;2022-10-17T02:33:10;11.90;99.90
10437;DHT22;5265;50.006;9.202;2022-10-17T02:35:42;11.90;1.00
10437;DHT22;5265;50.006;9.202;2022-10-17T02:38:11;11.90;99.90
10437;DHT22;5265;50.006;9.202;2022-10-17T02:40:41;11.80;99.90
10437;DHT22;5265;50.006;9.202;2022-10-17T02:43:08;11.70;1.00
10437;DHT22;5265;50.006;9.202;2022-10-17T02:45:35;11.70;1.00
10437;DHT22;5265;50.006;9.202;2022-10-17T02:48:04;11.70;99.90
10437;DHT22;5265;50.006;9.202;2022-10-17T02:50:33;11.70;1.00
10437;DHT22;5265;50.006;9.202;2022-10-17T02:53:04;11.80;1.00
10437;DHT22;5265;50.006;9.202;2022-10-17T02:55:35;11.80;1.00
10437;DHT22;5265;50.006;9.202;2022-10-17T02:58:05;11.70;1.00
10437;DHT22;5265;50.006;9.202;2022-10-17T03:00:36;11.70;1.00
10437;DHT22;5265;50.006;9.202;2022-10-17T03:03:16;11.70;1.00
10437;DHT22;5265;50.006;9.202;2022-10-17T03:05:44;11.70;31.70
10437;DHT22;5265;50.006;9.202;2022-10-17T03:08:12;11.70;1.00
10437;DHT22;5265;50.006;9.202;2022-10-17T03:10:40;11.60;1.00
10437;DHT22;5265;50.006;9.202;2022-10-17T03:13:07;11.70;1.00
10437;DHT22;5265;50.006;9.202;2022-10-17T03:15:38;11.60;1.00
10437;DHT22;5265;50.006;9.202;2022-10-17T03:18:05;11.60;1.00
10437;DHT22;5265;50.006;9.202;2022-10-17T03:20:32;11.60;1.00
10437;DHT22;5265;50.006;9.202;2022-10-17T03:22:59;11.60;21.70
10437;DHT22;5265;50.006;9.202;2022-10-17T03:25:29;11.60;1.00
10437;DHT22;5265;50.006;9.202;2022-10-17T03:27:57;11.60;1.00
10437;DHT22;5265;50.006;9.202;2022-10-17T03:30:25;11.50;99.90
10437;DHT22;5265;50.006;9.202;2022-10-17T03:32:52;11.50;99.90
10437;DHT22;5265;50.006;9.202;2022-10-17T03:35:19;11.50;1.00
10437;DHT22;5265;50.006;9.202;2022-10-17T03:37:49;11.50;1.00
10437;DHT22;5265;50.006;9.202;2022-10-17T03:40:18;11.50;1.00
10437;DHT22;5265;50.006;9.202;2022-10-17T03:42:47;11.50;1.00
10437;DHT22;5265;50.006;9.202;2022-10-17T03:45:15;11.50;1.00
10437;DHT22;5265;50.006;9.202;2022-10-17T03:47:43;11.50;99.90
10437;DHT22;5265;50.006;9.202;2022-10-17T03:50:10;11.50;1.00
10437;DHT22;5265;50.006;9.202;2022-10-17T03:52:38;11.40;99.90
10437;DHT22;5265;50.006;9.202;2022-10-17T03:55:07;11.40;99.90
10437;DHT22;5265;50.006;9.202;2022-10-17T03:57:34;11.50;81.70
10437;DHT22;5265;50.006;9.202;2022-10-17T04:00:08;11.50;1.00
10437;DHT22;5265;50.006;9.202;2022-10-17T04:02:41;11.40;1.00
10437;DHT22;5265;50.006;9.202;2022-10-17T04:05:16;11.50;1.00
10437;DHT22;5265;50.006;9.202;2022-10-17T04:07:43;11.50;99.90
10437;DHT22;5265;50.006;9.202;2022-10-17T04:10:11;11.40;1.00
10437;DHT22;5265;50.006;9.202;2022-10-17T04:12:39;11.50;16.60
10437;DHT22;5265;50.006;9.202;2022-10-17T04:15:08;11.40;1.00
10437;DHT22;5265;50.006;9.202;2022-10-17T04:17:36;11.40;1.00
10437;DHT22;5265;50.006;9.202;2022-10-17T04:20:04;11.30;1.00
10437;DHT22;5265;50.006;9.202;2022-10-17T04:22:31;11.30;99.90
10437;DHT22;5265;50.006;9.202;2022-10-17T04:24:59;11.30;99.90
10437;DHT22;5265;50.006;9.202;2022-10-17T04:27:32;11.30;1.00
10437;DHT22;5265;50.006;9.202;2022-10-17T04:29:59;11.30;1.00
10437;DHT22;5265;50.006;9.202;2022-10-17T04:32:27;11.30;1.00
10437;DHT22;5265;50.006;9.202;2022-10-17T04:35:02;11.30;1.00
10437;DHT22;5265;50.006;9.202;2022-10-17T04:37:30;11.30;1.00
10437;DHT22;5265;50.006;9.202;2022-10-17T04:40:01;11.20;1.00
10437;DHT22;5265;50.006;9.202;2022-10-17T04:42:31;11.20;1.00
10437;DHT22;5265;50.006;9.202;2022-10-17T04:44:58;11.40;1.00
10437;DHT22;5265;50.006;9.202;2022-10-17T04:47:27;11.30;99.90
10437;DHT22;5265;50.006;9.202;2022-10-17T04:49:55;11.30;99.90
10437;DHT22;5265;50.006;9.202;2022-10-17T04:52:22;11.30;1.00
10437;DHT22;5265;50.006;9.202;2022-10-17T04:54:49;11.30;1.00
10437;DHT22;5265;50.006;9.202;2022-10-17T04:57:17;11.30;1.00
10437;DHT22;5265;50.006;9.202;2022-10-17T04:59:53;11.20;1.00
10437;DHT22;5265;50.006;9.202;2022-10-17T05:02:28;11.20;1.00
10437;DHT22;5265;50.006;9.202;2022-10-17T05:04:55;11.30;1.00
10437;DHT22;5265;50.006;9.202;2022-10-17T05:07:22;11.30;1.00
10437;DHT22;5265;50.006;9.202;2022-10-17T05:10:01;11.30;1.00
10437;DHT22;5265;50.006;9.202;2022-10-17T05:12:30;11.30;1.00
10437;DHT22;5265;50.006;9.202;2022-10-17T05:14:57;11.40;1.00
10437;DHT22;5265;50.006;9.202;2022-10-17T05:17:27;11.30;99.90
10437;DHT22;5265;50.006;9.202;2022-10-17T05:19:55;11.50;99.90
10437;DHT22;5265;50.006;9.202;2022-10-17T05:22:22;11.40;67.10
10437;DHT22;5265;50.006;9.202;2022-10-17T05:24:49;11.30;99.90
10437;DHT22;5265;50.006;9.202;2022-10-17T05:27:17;11.40;1.00
10437;DHT22;5265;50.006;9.202;2022-10-17T05:29:44;11.40;99.90
10437;DHT22;5265;50.006;9.202;2022-10-17T05:32:19;11.30;17.50
10437;DHT22;5265;50.006;9.202;2022-10-17T05:34:48;11.30;99.90
10437;DHT22;5265;50.006;9.202;2022-10-17T05:37:15;11.20;99.90
10437;DHT22;5265;50.006;9.202;2022-10-17T05:39:47;11.30;1.00
10437;DHT22;5265;50.006;9.202;2022-10-17T05:42:14;11.20;99.90
10437;DHT22;5265;50.006;9.202;2022-10-17T05:44:42;11.20;1.00
10437;DHT22;5265;50.006;9.202;2022-10-17T05:47:09;11.20;1.00
10437;DHT22;5265;50.006;9.202;2022-10-17T05:49:37;11.20;1.00
10437;DHT22;5265;50.006;9.202;2022-10-17T05:52:05;11.10;1.00
10437;DHT22;5265;50.006;9.202;2022-10-17T05:54:42;11.10;1.00
10437;DHT22;5265;50.006;9.202;2022-10-17T05:57:10;11.10;1.00
10437;DHT22;5265;50.006;9.202;2022-10-17T05:59:39;11.20;1.00
10437;DHT22;5265;50.006;9.202;2022-10-17T06:02:11;11.20;1.00
10437;DHT22;5265;50.006;9.202;2022-10-17T06:04:38;11.10;1.00
10437;DHT22;5265;50.006;9.202;2022-10-17T06:07:12;11.20;1.00
10437;DHT22;5265;50.006;9.202;2022-10-17T06:09:41;11.20;1.00
10437;DHT22;5265;50.006;9.202;2022-10-17T06:12:09;11.20;1.00
10437;DHT22;5265;50.006;9.202;2022-10-17T06:14:36;11.30;1.00
10437;DHT22;5265;50.006;9.202;2022-10-17T06:17:05;11.30;1.00
10437;DHT22;5265;50.006;9.202;2022-10-17T06:19:32;11.30;25.10
10437;DHT22;5265;50.006;9.202;2022-10-17T06:22:01;11.50;99.90
10437;DHT22;5265;50.006;9.202;2022-10-17T06:24:31;11.60;99.90
10437;DHT22;5265;50.006;9.202;2022-10-17T06:27:02;11.50;27.30
10437;DHT22;5265;50.006;9.202;2022-10-17T06:29:29;11.50;26.20
10437;DHT22;5265;50.006;9.202;2022-10-17T06:31:56;11.60;99.90
10437;DHT22;5265;50.006;9.202;2022-10-17T06:34:24;11.70;99.90
10437;DHT22;5265;50.006;9.202;2022-10-17T06:36:51;11.70;99.90
10437;DHT22;5265;50.006;9.202;2022-10-17T06:39:19;11.80;99.90
10437;DHT22;5265;50.006;9.202;2022-10-17T06:42:07;11.80;99.90
10437;DHT22;5265;50.006;9.202;2022-10-17T06:44:45;11.90;99.90
10437;DHT22;5265;50.006;9.202;2022-10-17T06:47:35;12.00;99.90
10437;DHT22;5265;50.006;9.202;2022-10-17T06:50:13;11.90;99.90
10437;DHT22;5265;50.006;9.202;2022-10-17T06:52:57;12.00;64.20
10437;DHT22;5265;50.006;9.202;2022-10-17T06:55:45;11.90;1.00
10437;DHT22;5265;50.006;9.202;2022-10-17T06:58:53;12.00;1.00
10437;DHT22;5265;50.006;9.202;2022-10-17T07:01:34;12.00;1.00
10437;DHT22;5265;50.006;9.202;2022-10-17T07:04:03;12.10;89.10
10437;DHT22;5265;50.006;9.202;2022-10-17T07:06:30;12.20;99.90
10437;DHT22;5265;50.006;9.202;2022-10-17T07:09:03;12.30;99.90
10437;DHT22;5265;50.006;9.202;2022-10-17T07:11:34;12.30;99.90
10437;DHT22;5265;50.006;9.202;2022-10-17T07:14:03;12.30;94.20
10437;DHT22;5265;50.006;9.202;2022-10-17T07:16:30;12.40;99.90
10437;DHT22;5265;50.006;9.202;2022-10-17T07:19:07;12.50;99.90
10437;DHT22;5265;50.006;9.202;2022-10-17T07:21:36;12.60;99.90
10437;DHT22;5265;50.006;9.202;2022-10-17T07:24:04;12.70;99.90
10437;DHT22;5265;50.006;9.202;2022-10-17T07:26:32;12.80;99.90
10437;DHT22;5265;50.006;9.202;2022-10-17T07:29:00;12.80;99.90
10437;DHT22;5265;50.006;9.202;2022-10-17T07:31:36;12.80;99.90
10437;DHT22;5265;50.006;9.202;2022-10-17T07:34:03;13.00;1.00
10437;DHT22;5265;50.006;9.202;2022-10-17T07:36:30;13.00;1.00
10437;DHT22;5265;50.006;9.202;2022-10-17T07:39:00;13.00;1.00
10437;DHT22;5265;50.006;9.202;2022-10-17T07:41:29;13.10;1.00
10437;DHT22;5265;50.006;9.202;2022-10-17T07:43:56;13.10;1.00
10437;DHT22;5265;50.006;9.202;2022-10-17T07:46:30;13.20;1.00
10437;DHT22;5265;50.006;9.202;2022-10-17T07:49:00;13.30;1.00
10437;DHT22;5265;50.006;9.202;2022-10-17T07:51:27;13.40;1.00
10437;DHT22;5265;50.006;9.202;2022-10-17T07:53:54;13.70;1.00
10437;DHT22;5265;50.006;9.202;2022-10-17T07:56:22;13.70;1.00
10437;DHT22;5265;50.006;9.202;2022-10-17T07:58:49;13.80;1.00
10437;DHT22;5265;50.006;9.202;2022-10-17T08:01:16;13.80;1.00
10437;DHT22;5265;50.006;9.202;2022-10-17T08:03:44;13.90;1.00
10437;DHT22;5265;50.006;9.202;2022-10-17T08:06:14;14.20;1.00
10437;DHT22;5265;50.006;9.202;2022-10-17T08:08:42;14.40;1.00
10437;DHT22;5265;50.006;9.202;2022-10-17T08:11:10;14.50;99.90
10437;DHT22;5265;50.006;9.202;2022-10-17T08:13:37;14.50;64.30
10437;DHT22;5265;50.006;9.202;2022-10-17T08:16:06;14.60;99.90
10437;DHT22;5265;50.006;9.202;2022-10-17T08:18:33;14.60;1.00
10437;DHT22;5265;50.006;9.202;2022-10-17T08:21:00;14.60;1.00
10437;DHT22;5265;50.006;9.202;2022-10-17T08:23:29;14.70;32.90
10437;DHT22;5265;50.006;9.202;2022-10-17T08:25:57;14.90;41.20
10437;DHT22;5265;50.006;9.202;2022-10-17T08:28:24;15.00;1.00
10437;DHT22;5265;50.006;9.202;2022-10-17T08:30:51;15.10;1.00
10437;DHT22;5265;50.006;9.202;2022-10-17T08:33:18;15.20;1.00
10437;DHT22;5265;50.006;9.202;2022-10-17T08:35:46;15.30;1.00
10437;DHT22;5265;50.006;9.202;2022-10-17T08:38:13;15.40;99.90
10437;DHT22;5265;50.006;9.202;2022-10-17T08:40:41;15.50;99.90
10437;DHT22;5265;50.006;9.202;2022-10-17T08:43:13;15.60;99.90
10437;DHT22;5265;50.006;9.202;2022-10-17T08:45:44;15.70;27.70
10437;DHT22;5265;50.006;9.202;2022-10-17T08:48:13;15.80;1.00
10437;DHT22;5265;50.006;9.202;2022-10-17T08:50:42;15.90;1.00
10437;DHT22;5265;50.006;9.202;2022-10-17T08:53:11;16.00;1.00
10437;DHT22;5265;50.006;9.202;2022-10-17T08:55:43;16.20;99.90
10437;DHT22;5265;50.006;9.202;2022-10-17T08:58:12;16.30;99.90
10437;DHT22;5265;50.006;9.202;2022-10-17T09:00:40;16.40;1.00
10437;DHT22;5265;50.006;9.202;2022-10-17T09:03:14;16.60;99.90
10437;DHT22;5265;50.006;9.202;2022-10-17T09:05:48;16.70;99.90
10437;DHT22;5265;50.006;9.202;2022-10-17T09:08:23;16.70;1.00
10437;DHT22;5265;50.006;9.202;2022-10-17T09:10:56;16.80;99.90
10437;DHT22;5265;50.006;9.202;2022-10-17T09:13:26;16.80;99.90
10437;DHT22;5265;50.006;9.202;2022-10-17T09:16:03;17.00;1.00
10437;DHT22;5265;50.006;9.202;2022-10-17T09:18:34;17.10;1.00
10437;DHT22;5265;50.006;9.202;2022-10-17T09:21:05;17.20;1.00
10437;DHT22;5265;50.006;9.202;2022-10-17T09:23:37;17.40;1.00
10437;DHT22;5265;50.006;9.202;2022-10-17T09:26:09;17.50;1.00
10437;DHT22;5265;50.006;9.202;2022-10-17T09:28:37;17.70;1.00
10437;DHT22;5265;50.006;9.202;2022-10-17T09:31:06;17.70;99.90
10437;DHT22;5265;50.006;9.202;2022-10-17T09:33:38;17.80;99.90
10437;DHT22;5265;50.006;9.202;2022-10-17T09:36:08;17.90;99.90
10437;DHT22;5265;50.006;9.202;2022-10-17T09:38:38;18.10;99.90
10437;DHT22;5265;50.006;9.202;2022-10-17T09:41:06;18.10;99.90
10437;DHT22;5265;50.006;9.202;2022-10-17T09:43:39;18.10;99.90
10437;DHT22;5265;50.006;9.202;2022-10-17T09:46:06;18.30;99.90
10437;DHT22;5265;50.006;9.202;2022-10-17T09:48:36;18.30;99.90
10437;DHT22;5265;50.006;9.202;2022-10-17T09:51:04;18.40;99.90
10437;DHT22;5265;50.006;9.202;2022-10-17T09:53:33;18.40;99.90
10437;DHT22;5265;50.006;9.202;2022-10-17T09:56:01;18.50;99.90
10437;DHT22;5265;50.006;9.202;2022-10-17T09:58:40;18.50;99.90
10437;DHT22;5265;50.006;9.202;2022-10-17T10:01:13;18.60;99.90
10437;DHT22;5265;50.006;9.202;2022-10-17T10:03:41;18.60;99.90
10437;DHT22;5265;50.006;9.202;2022-10-17T10:06:11;18.60;99.90
10437;DHT22;5265;50.006;9.202;2022-10-17T10:08:47;18.70;99.90
10437;DHT22;5265;50.006;9.202;2022-10-17T10:11:14;18.70;99.90
10437;DHT22;5265;50.006;9.202;2022-10-17T10:13:45;18.80;99.90
10437;DHT22;5265;50.006;9.202;2022-10-17T10:16:14;18.90;97.70
10437;DHT22;5265;50.006;9.202;2022-10-17T10:18:42;19.00;71.50
10437;DHT22;5265;50.006;9.202;2022-10-17T10:21:10;19.00;70.60
10437;DHT22;5265;50.006;9.202;2022-10-17T10:23:38;19.00;47.30
10437;DHT22;5265;50.006;9.202;2022-10-17T10:26:13;19.10;41.50
10437;DHT22;5265;50.006;9.202;2022-10-17T10:28:50;19.20;34.40
10437;DHT22;5265;50.006;9.202;2022-10-17T10:31:23;19.30;32.00
10437;DHT22;5265;50.006;9.202;2022-10-17T10:33:51;19.30;29.00
10437;DHT22;5265;50.006;9.202;2022-10-17T10:36:18;19.40;12.70
10437;DHT22;5265;50.006;9.202;2022-10-17T10:38:50;19.60;3.30
10437;DHT22;5265;50.006;9.202;2022-10-17T10:41:17;19.70;9.90
10437;DHT22;5265;50.006;9.202;2022-10-17T10:43:47;19.90;1.00
10437;DHT22;5265;50.006;9.202;2022-10-17T10:46:17;20.00;1.00
10437;DHT22;5265;50.006;9.202;2022-10-17T10:48:51;20.10;1.00
10437;DHT22;5265;50.006;9.202;2022-10-17T10:51:20;20.10;1.00
10437;DHT22;5265;50.006;9.202;2022-10-17T10:53:50;20.20;1.00
10437;DHT22;5265;50.006;9.202;2022-10-17T10:56:19;20.30;1.00
10437;DHT22;5265;50.006;9.202;2022-10-17T10:58:52;20.40;1.00
10437;DHT22;5265;50.006;9.202;2022-10-17T11:01:24;20.50;1.00
10437;DHT22;5265;50.006;9.202;2022-10-17T11:03:59;20.70;1.00
10437;DHT22;5265;50.006;9.202;2022-10-17T11:06:29;20.90;1.00
10437;DHT22;5265;50.006;9.202;2022-10-17T11:09:03;21.10;1.00
10437;DHT22;5265;50.006;9.202;2022-10-17T11:11:32;21.20;1.00
10437;DHT22;5265;50.006;9.202;2022-10-17T11:14:10;21.40;1.00
10437;DHT22;5265;50.006;9.202;2022-10-17T11:16:43;21.40;1.00
10437;DHT22;5265;50.006;9.202;2022-10-17T11:19:13;21.40;1.00
10437;DHT22;5265;50.006;9.202;2022-10-17T11:21:44;21.50;1.00
10437;DHT22;5265;50.006;9.202;2022-10-17T11:24:14;21.50;1.00
10437;DHT22;5265;50.006;9.202;2022-10-17T11:26:45;21.60;1.00
10437;DHT22;5265;50.006;9.202;2022-10-17T11:29:15;21.70;1.00
10437;DHT22;5265;50.006;9.202;2022-10-17T11:31:45;21.70;1.00
10437;DHT22;5265;50.006;9.202;2022-10-17T11:34:14;21.80;1.00
10437;DHT22;5265;50.006;9.202;2022-10-17T11:36:45;22.00;1.00
10437;DHT22;5265;50.006;9.202;2022-10-17T11:39:14;22.00;1.00
10437;DHT22;5265;50.006;9.202;2022-10-17T11:41:42;22.10;1.00
10437;DHT22;5265;50.006;9.202;2022-10-17T11:44:13;22.20;1.00
10437;DHT22;5265;50.006;9.202;2022-10-17T11:46:41;22.20;1.00
10437;DHT22;5265;50.006;9.202;2022-10-17T11:49:13;22.40;1.00
10437;DHT22;5265;50.006;9.202;2022-10-17T11:51:42;22.50;1.00
10437;DHT22;5265;50.006;9.202;2022-10-17T11:54:12;22.60;1.00
10437;DHT22;5265;50.006;9.202;2022-10-17T11:56:43;22.70;1.00
10437;DHT22;5265;50.006;9.202;2022-10-17T12:01:55;22.90;1.00
10437;DHT22;5265;50.006;9.202;2022-10-17T12:04:26;23.00;1.00
10437;DHT22;5265;50.006;9.202;2022-10-17T12:07:04;23.10;1.00
10437;DHT22;5265;50.006;9.202;2022-10-17T12:09:33;23.30;1.00
10437;DHT22;5265;50.006;9.202;2022-10-17T12:12:05;23.40;1.00
10437;DHT22;5265;50.006;9.202;2022-10-17T12:14:33;23.40;1.00
10437;DHT22;5265;50.006;9.202;2022-10-17T12:17:01;23.40;1.00
10437;DHT22;5265;50.006;9.202;2022-10-17T12:19:34;23.50;1.00
10437;DHT22;5265;50.006;9.202;2022-10-17T12:22:02;23.60;1.00
10437;DHT22;5265;50.006;9.202;2022-10-17T12:24:34;23.60;1.00
10437;DHT22;5265;50.006;9.202;2022-10-17T12:29:44;23.70;1.00
10437;DHT22;5265;50.006;9.202;2022-10-17T12:32:12;23.80;1.00
10437;DHT22;5265;50.006;9.202;2022-10-17T12:34:48;23.80;1.00
10437;DHT22;5265;50.006;9.202;2022-10-17T12:37:28;23.80;1.00
10437;DHT22;5265;50.006;9.202;2022-10-17T12:43:30;24.10;1.00
10437;DHT22;5265;50.006;9.202;2022-10-17T12:45:59;24.40;1.00
10437;DHT22;5265;50.006;9.202;2022-10-17T12:51:13;25.10;1.00
10437;DHT22;5265;50.006;9.202;2022-10-17T12:53:43;25.00;1.00
10437;DHT22;5265;50.006;9.202;2022-10-17T12:56:13;25.00;1.00
10437;DHT22;5265;50.006;9.202;2022-10-17T12:58:42;25.10;1.00
10437;DHT22;5265;50.006;9.202;2022-10-17T13:01:13;25.20;1.00
10437;DHT22;5265;50.006;9.202;2022-10-17T13:03:43;25.00;1.00
10437;DHT22;5265;50.006;9.202;2022-10-17T13:06:13;25.10;1.00
10437;DHT22;5265;50.006;9.202;2022-10-17T13:08:42;25.10;1.00
10437;DHT22;5265;50.006;9.202;2022-10-17T13:11:10;25.30;1.00
10437;DHT22;5265;50.006;9.202;2022-10-17T13:13:40;25.30;1.00
10437;DHT22;5265;50.006;9.202;2022-10-17T13:16:08;25.00;1.00
10437;DHT22;5265;50.006;9.202;2022-10-17T13:18:36;25.00;1.00
10437;DHT22;5265;50.006;9.202;2022-10-17T13:21:04;24.90;1.00
10437;DHT22;5265;50.006;9.202;2022-10-17T13:23:33;25.10;1.00
10437;DHT22;5265;50.006;9.202;2022-10-17T13:26:01;25.40;1.00
10437;DHT22;5265;50.006;9.202;2022-10-17T13:28:28;24.90;1.00
10437;DHT22;5265;50.006;9.202;2022-10-17T13:30:55;25.00;1.00
10437;DHT22;5265;50.006;9.202;2022-10-17T13:33:31;25.20;1.00
10437;DHT22;5265;50.006;9.202;2022-10-17T13:36:00;25.10;1.00
10437;DHT22;5265;50.006;9.202;2022-10-17T13:38:29;25.20;1.00
10437;DHT22;5265;50.006;9.202;2022-10-17T13:40:58;25.20;1.00
10437;DHT22;5265;50.006;9.202;2022-10-17T13:43:26;24.90;1.00
10437;DHT22;5265;50.006;9.202;2022-10-17T13:45:54;25.00;1.00
10437;DHT22;5265;50.006;9.202;2022-10-17T13:48:22;25.10;1.00
10437;DHT22;5265;50.006;9.202;2022-10-17T13:50:51;25.20;1.00
10437;DHT22;5265;50.006;9.202;2022-10-17T13:53:26;25.00;1.00
10437;DHT22;5265;50.006;9.202;2022-10-17T13:55:56;25.10;1.00
10437;DHT22;5265;50.006;9.202;2022-10-17T13:58:24;25.40;1.00
10437;DHT22;5265;50.006;9.202;2022-10-17T14:00:52;25.50;1.00
10437;DHT22;5265;50.006;9.202;2022-10-17T14:03:20;25.20;1.00
10437;DHT22;5265;50.006;9.202;2022-10-17T14:06:00;25.10;1.00
10437;DHT22;5265;50.006;9.202;2022-10-17T14:08:30;24.80;1.00
10437;DHT22;5265;50.006;9.202;2022-10-17T14:10:57;24.90;1.00
10437;DHT22;5265;50.006;9.202;2022-10-17T14:13:25;24.90;1.00
10437;DHT22;5265;50.006;9.202;2022-10-17T14:15:53;24.70;1.00
10437;DHT22;5265;50.006;9.202;2022-10-17T14:18:22;24.60;1.00
10437;DHT22;5265;50.006;9.202;2022-10-17T14:20:51;24.20;1.00
10437;DHT22;5265;50.006;9.202;2022-10-17T14:23:28;24.30;1.00
10437;DHT22;5265;50.006;9.202;2022-10-17T14:26:04;24.40;1.00
10437;DHT22;5265;50.006;9.202;2022-10-17T14:28:31;24.40;1.00
10437;DHT22;5265;50.006;9.202;2022-10-17T14:31:08;24.50;1.00
10437;DHT22;5265;50.006;9.202;2022-10-17T14:33:36;24.60;1.00
10437;DHT22;5265;50.006;9.202;2022-10-17T14:36:03;24.40;1.00
10437;DHT22;5265;50.006;9.202;2022-10-17T14:38:31;24.50;1.00
10437;DHT22;5265;50.006;9.202;2022-10-17T14:40:58;24.60;1.00
10437;DHT22;5265;50.006;9.202;2022-10-17T14:43:28;24.70;1.00
10437;DHT22;5265;50.006;9.202;2022-10-17T14:45:56;24.40;1.00
10437;DHT22;5265;50.006;9.202;2022-10-17T14:48:24;24.40;1.00
10437;DHT22;5265;50.006;9.202;2022-10-17T14:51:05;24.40;1.00
10437;DHT22;5265;50.006;9.202;2022-10-17T14:53:33;24.60;1.00
10437;DHT22;5265;50.006;9.202;2022-10-17T14:56:00;24.30;1.00
10437;DHT22;5265;50.006;9.202;2022-10-17T14:58:30;24.30;1.00
10437;DHT22;5265;50.006;9.202;2022-10-17T15:00:58;24.20;1.00
10437;DHT22;5265;50.006;9.202;2022-10-17T15:03:26;24.20;1.00
10437;DHT22;5265;50.006;9.202;2022-10-17T15:05:53;24.30;1.00
10437;DHT22;5265;50.006;9.202;2022-10-17T15:08:22;24.30;1.00
10437;DHT22;5265;50.006;9.202;2022-10-17T15:10:49;24.10;1.00
10437;DHT22;5265;50.006;9.202;2022-10-17T15:13:16;24.00;1.00
10437;DHT22;5265;50.006;9.202;2022-10-17T15:15:45;24.20;1.00
10437;DHT22;5265;50.006;9.202;2022-10-17T15:18:16;24.40;1.00
10437;DHT22;5265;50.006;9.202;2022-10-17T15:20:43;24.00;1.00
10437;DHT22;5265;50.006;9.202;2022-10-17T15:23:10;23.70;1.00
10437;DHT22;5265;50.006;9.202;2022-10-17T15:25:37;23.50;1.00
10437;DHT22;5265;50.006;9.202;2022-10-17T15:28:04;23.50;1.00
10437;DHT22;5265;50.006;9.202;2022-10-17T15:30:33;23.50;1.00
10437;DHT22;5265;50.006;9.202;2022-10-17T15:33:02;23.30;1.00
10437;DHT22;5265;50.006;9.202;2022-10-17T15:35:30;23.30;1.00
10437;DHT22;5265;50.006;9.202;2022-10-17T15:37:57;23.10;1.00
10437;DHT22;5265;50.006;9.202;2022-10-17T15:40:25;23.20;1.00
10437;DHT22;5265;50.006;9.202;2022-10-17T15:42:53;23.10;1.00
10437;DHT22;5265;50.006;9.202;2022-10-17T15:45:22;23.10;1.00
10437;DHT22;5265;50.006;9.202;2022-10-17T15:47:49;23.00;1.00
10437;DHT22;5265;50.006;9.202;2022-10-17T15:50:18;23.00;1.00
10437;DHT22;5265;50.006;9.202;2022-10-17T15:52:46;22.80;1.00
10437;DHT22;5265;50.006;9.202;2022-10-17T15:55:15;22.70;1.00
10437;DHT22;5265;50.006;9.202;2022-10-17T15:57:44;22.70;1.00
10437;DHT22;5265;50.006;9.202;2022-10-17T16:00:14;22.70;1.00
10437;DHT22;5265;50.006;9.202;2022-10-17T16:02:41;22.70;1.00
10437;DHT22;5265;50.006;9.202;2022-10-17T16:05:10;22.80;1.00
10437;DHT22;5265;50.006;9.202;2022-10-17T16:07:41;22.80;1.00
10437;DHT22;5265;50.006;9.202;2022-10-17T16:10:10;22.70;1.00
10437;DHT22;5265;50.006;9.202;2022-10-17T16:12:37;22.70;1.00
10437;DHT22;5265;50.006;9.202;2022-10-17T16:15:06;22.60;1.00
10437;DHT22;5265;50.006;9.202;2022-10-17T16:17:33;22.50;1.00
10437;DHT22;5265;50.006;9.202;2022-10-17T16:20:01;22.40;1.00
10437;DHT22;5265;50.006;9.202;2022-10-17T16:22:28;22.10;1.00
10437;DHT22;5265;50.006;9.202;2022-10-17T16:24:58;21.90;1.00